Time;durP1;ratioP1;P1;durP2;ratioP2;P2;SDS_P1;SDS_P2;PMS_P1;PMS_P2;Temp;Humidity;BMP_temperature;BMP_pressure;BME280_temperature;BME280_humidity;BME280_pressure;Samples;Min_cycle;Max_cycle;Signal;HPM_P1;HPM_P2
2023/08/19 00:00:40;;;;;;;14.38;8.45;;;;;;;;;;4999482;28;20046;-83
2023/08/19 00:03:26;;;;;;;11.38;8.13;;;;;;;;;;5014499;28;20045;-82
2023/08/19 00:06:35;;;;;;;12.23;8.07;;;;;;;;;;5014740;28;20458;-79
2023/08/19 00:09:21;;;;;;;11.15;8.10;;;;;;;;;;5005637;28;20485;-81
2023/08/19 00:12:06;;;;;;;11.52;7.03;;;;;;;;;;5014712;28;20038;-78
2023/08/19 00:14:54;;;;;;;12.10;7.63;;;;;;;;;;5014092;28;20046;-79
2023/08/19 00:17:39;;;;;;;11.68;7.90;;;;;;;;;;5014274;28;20041;-77
2023/08/19 00:20:27;;;;;;;8.60;7.38;;;;;;;;;;5014599;28;20046;-79
2023/08/19 00:23:16;;;;;;;9.88;7.88;;;;;;;;;;5014115;28;20050;-80
2023/08/19 00:26:02;;;;;;;12.95;8.40;;;;;;;;;;5014356;28;20501;-80
2023/08/19 00:28:47;;;;;;;11.52;9.40;;;;;;;;;;4999255;28;20405;-80
2023/08/19 00:31:33;;;;;;;13.60;9.07;;;;;;;;;;5006328;28;20049;-79
2023/08/19 00:34:19;;;;;;;15.18;8.50;;;;;;;;;;5013345;28;20042;-78
2023/08/19 00:37:05;;;;;;;9.75;8.65;;;;;;;;;;5005207;28;20038;-80
2023/08/19 00:39:49;;;;;;;14.05;8.10;;;;;;;;;;5019605;28;20046;-80
2023/08/19 00:42:34;;;;;;;8.85;7.95;;;;;;;;;;5019458;28;20050;-78
2023/08/19 00:45:20;;;;;;;10.73;8.43;;;;;;;;;;5005719;28;20050;-80
2023/08/19 00:48:06;;;;;;;10.50;8.65;;;;;;;;;;4999114;28;20054;-79
2023/08/19 00:50:51;;;;;;;13.15;8.55;;;;;;;;;;5008790;28;20049;-79
2023/08/19 00:53:37;;;;;;;15.13;8.82;;;;;;;;;;4996057;28;20049;-78
2023/08/19 00:56:22;;;;;;;16.02;9.30;;;;;;;;;;5017610;28;20050;-77
2023/08/19 00:59:08;;;;;;;13.90;10.27;;;;;;;;;;5017539;28;20045;-78
2023/08/19 01:01:53;;;;;;;10.93;8.43;;;;;;;;;;5004343;28;20050;-80
2023/08/19 01:04:39;;;;;;;11.50;7.93;;;;;;;;;;5009073;28;20049;-80
2023/08/19 01:07:37;;;;;;;11.82;8.23;;;;;;;;;;5017486;28;20054;-79
2023/08/19 01:10:43;;;;;;;14.50;8.70;;;;;;;;;;5009059;28;20417;-78
2023/08/19 01:13:35;;;;;;;9.73;8.55;;;;;;;;;;5017402;28;20053;-78
2023/08/19 01:16:26;;;;;;;10.23;8.43;;;;;;;;;;5009901;28;20053;-79
2023/08/19 01:19:23;;;;;;;10.40;7.95;;;;;;;;;;5016660;28;20489;-78
2023/08/19 01:22:11;;;;;;;11.45;8.07;;;;;;;;;;5017109;28;20397;-80
2023/08/19 01:24:56;;;;;;;11.98;8.43;;;;;;;;;;5008763;28;20054;-79
2023/08/19 01:27:41;;;;;;;13.23;8.70;;;;;;;;;;5017335;28;20058;-79
2023/08/19 01:30:30;;;;;;;11.13;9.10;;;;;;;;;;5008899;28;20045;-81
2023/08/19 01:33:17;;;;;;;14.23;9.30;;;;;;;;;;5008565;28;20053;-77
2023/08/19 01:36:29;;;;;;;10.50;9.40;;;;;;;;;;5017244;28;20046;-80
2023/08/19 01:39:18;;;;;;;14.43;8.60;;;;;;;;;;5008426;28;20046;-80
2023/08/19 01:42:04;;;;;;;12.40;9.40;;;;;;;;;;5017359;28;20054;-79
2023/08/19 01:44:50;;;;;;;12.50;8.43;;;;;;;;;;5001827;28;20401;-80
2023/08/19 01:47:39;;;;;;;9.55;8.55;;;;;;;;;;5009518;28;20046;-77
2023/08/19 01:50:25;;;;;;;10.30;8.50;;;;;;;;;;5002225;28;20045;-78
2023/08/19 01:53:11;;;;;;;12.63;7.90;;;;;;;;;;5007976;28;20053;-80
2023/08/19 01:55:57;;;;;;;10.15;8.30;;;;;;;;;;5022180;28;20057;-78
2023/08/19 01:58:42;;;;;;;12.20;8.95;;;;;;;;;;5007952;28;20046;-79
2023/08/19 02:01:27;;;;;;;11.23;8.57;;;;;;;;;;4989114;28;20050;-80
2023/08/19 02:04:13;;;;;;;11.45;8.70;;;;;;;;;;5022480;28;20041;-78
2023/08/19 02:07:00;;;;;;;12.23;8.50;;;;;;;;;;5016079;28;20050;-80
2023/08/19 02:09:46;;;;;;;11.00;8.13;;;;;;;;;;5022206;28;20050;-79
2023/08/19 02:12:31;;;;;;;11.98;8.18;;;;;;;;;;5016674;28;20054;-79
2023/08/19 02:15:17;;;;;;;11.00;8.35;;;;;;;;;;5007706;28;20046;-78
2023/08/19 02:18:04;;;;;;;12.00;8.98;;;;;;;;;;5007716;28;20046;-80
2023/08/19 02:20:49;;;;;;;11.65;9.07;;;;;;;;;;5016008;28;20046;-79
2023/08/19 02:23:34;;;;;;;12.30;9.00;;;;;;;;;;5015613;28;20057;-80
2023/08/19 02:26:20;;;;;;;13.27;8.77;;;;;;;;;;5016208;28;20046;-79
2023/08/19 02:29:05;;;;;;;15.05;8.60;;;;;;;;;;5015943;28;20054;-80
2023/08/19 02:31:50;;;;;;;11.63;9.05;;;;;;;;;;5016123;28;20061;-78
2023/08/19 02:34:37;;;;;;;12.98;9.43;;;;;;;;;;5015776;28;20046;-79
2023/08/19 02:37:22;;;;;;;11.50;9.27;;;;;;;;;;5015835;28;20054;-82
2023/08/19 02:40:08;;;;;;;13.45;9.30;;;;;;;;;;5015826;28;20049;-78
2023/08/19 02:42:55;;;;;;;10.68;9.07;;;;;;;;;;5021005;28;20481;-78
2023/08/19 02:45:41;;;;;;;14.85;9.82;;;;;;;;;;5015639;28;20046;-81
2023/08/19 02:48:27;;;;;;;16.42;9.40;;;;;;;;;;5015321;28;20481;-81
2023/08/19 02:51:12;;;;;;;15.93;9.13;;;;;;;;;;5015618;28;20042;-79
2023/08/19 02:53:57;;;;;;;14.13;8.90;;;;;;;;;;5001162;28;20049;-79
2023/08/19 02:56:43;;;;;;;13.52;8.95;;;;;;;;;;5015207;28;20045;-78
2023/08/19 02:59:29;;;;;;;11.63;9.20;;;;;;;;;;5007381;28;20046;-79
2023/08/19 03:02:14;;;;;;;10.73;9.10;;;;;;;;;;5016010;28;20057;-80
2023/08/19 03:05:00;;;;;;;13.98;9.02;;;;;;;;;;5015079;28;20045;-80
2023/08/19 03:07:46;;;;;;;14.35;9.48;;;;;;;;;;5015521;28;20465;-80
2023/08/19 03:10:35;;;;;;;14.85;9.75;;;;;;;;;;5006691;28;20401;-80
2023/08/19 03:13:21;;;;;;;17.02;10.10;;;;;;;;;;5014412;28;20037;-79
2023/08/19 03:16:06;;;;;;;14.38;10.48;;;;;;;;;;5006879;28;20489;-81
2023/08/19 03:18:52;;;;;;;14.45;10.82;;;;;;;;;;5020811;28;20401;-79
2023/08/19 03:21:37;;;;;;;12.98;10.75;;;;;;;;;;5020572;28;20489;-80
2023/08/19 03:24:22;;;;;;;14.95;10.55;;;;;;;;;;5020157;28;20042;-80
2023/08/19 03:27:08;;;;;;;16.75;10.98;;;;;;;;;;5014633;28;20405;-77
2023/08/19 03:29:53;;;;;;;15.43;11.48;;;;;;;;;;5006750;28;20057;-80
2023/08/19 03:32:39;;;;;;;14.48;11.27;;;;;;;;;;5014791;28;20049;-79
2023/08/19 03:35:24;;;;;;;13.70;11.18;;;;;;;;;;5020535;28;20046;-78
2023/08/19 03:38:13;;;;;;;13.15;9.93;;;;;;;;;;5006581;28;20049;-77
2023/08/19 03:40:58;;;;;;;14.65;11.93;;;;;;;;;;5014953;28;20050;-79
2023/08/19 03:43:44;;;;;;;13.60;10.75;;;;;;;;;;5006449;28;20397;-78
2023/08/19 03:46:30;;;;;;;16.10;10.95;;;;;;;;;;5019783;28;20046;-78
2023/08/19 03:49:15;;;;;;;14.40;10.68;;;;;;;;;;5014643;28;20049;-79
2023/08/19 03:52:01;;;;;;;12.73;10.63;;;;;;;;;;5019928;28;20050;-81
2023/08/19 03:54:46;;;;;;;12.95;10.30;;;;;;;;;;5014694;28;20046;-80
2023/08/19 03:57:32;;;;;;;13.38;10.82;;;;;;;;;;5019987;28;20046;-78
2023/08/19 04:00:18;;;;;;;13.43;9.95;;;;;;;;;;5013876;28;20050;-79
2023/08/19 04:03:07;;;;;;;15.63;11.70;;;;;;;;;;5006367;28;20050;-79
2023/08/19 04:05:54;;;;;;;14.02;11.40;;;;;;;;;;5019633;28;20405;-78
2023/08/19 04:08:39;;;;;;;14.07;12.55;;;;;;;;;;5006776;28;20053;-81
2023/08/19 04:11:25;;;;;;;17.73;11.50;;;;;;;;;;5019701;28;20050;-77
2023/08/19 04:14:11;;;;;;;16.60;11.82;;;;;;;;;;5005660;28;20050;-77
2023/08/19 04:16:56;;;;;;;15.63;10.80;;;;;;;;;;5020722;28;20050;-79
2023/08/19 04:19:42;;;;;;;16.10;10.68;;;;;;;;;;5013483;28;20042;-82
2023/08/19 04:22:27;;;;;;;12.68;10.35;;;;;;;;;;5005604;28;20046;-78
2023/08/19 04:25:14;;;;;;;11.35;9.98;;;;;;;;;;5013911;28;20042;-79
2023/08/19 04:27:59;;;;;;;14.75;9.60;;;;;;;;;;5005813;28;20042;-79
2023/08/19 04:30:46;;;;;;;11.85;9.13;;;;;;;;;;5006080;28;20049;-81
2023/08/19 04:33:32;;;;;;;13.05;9.10;;;;;;;;;;5006244;28;20046;-81
2023/08/19 04:36:18;;;;;;;10.23;8.48;;;;;;;;;;5005857;28;20053;-78
2023/08/19 04:39:07;;;;;;;9.82;8.70;;;;;;;;;;5005770;28;20042;-80
2023/08/19 04:41:53;;;;;;;13.43;8.50;;;;;;;;;;5005685;28;20494;-79
2023/08/19 04:44:40;;;;;;;10.25;9.13;;;;;;;;;;5005768;28;20425;-81
2023/08/19 04:47:25;;;;;;;11.20;8.95;;;;;;;;;;5019183;28;20046;-80
2023/08/19 04:50:11;;;;;;;9.75;8.68;;;;;;;;;;5005671;28;20412;-78
2023/08/19 04:52:57;;;;;;;13.75;9.07;;;;;;;;;;5005647;28;20049;-78
2023/08/19 04:55:42;;;;;;;11.65;9.30;;;;;;;;;;4998700;28;20038;-79
2023/08/19 04:58:28;;;;;;;11.07;9.02;;;;;;;;;;5013890;28;20405;-80
2023/08/19 05:01:13;;;;;;;12.70;9.75;;;;;;;;;;5001561;28;20053;-79
2023/08/19 05:03:59;;;;;;;17.42;9.70;;;;;;;;;;5019213;28;20045;-80
2023/08/19 05:06:45;;;;;;;13.15;9.70;;;;;;;;;;4998945;28;20042;-80
2023/08/19 05:09:30;;;;;;;12.38;9.05;;;;;;;;;;5005156;28;20050;-78
2023/08/19 05:12:16;;;;;;;15.23;9.50;;;;;;;;;;5019103;28;20050;-77
2023/08/19 05:15:02;;;;;;;14.18;9.10;;;;;;;;;;5005520;28;20049;-77
2023/08/19 05:17:48;;;;;;;16.48;9.18;;;;;;;;;;5019115;28;20484;-78
2023/08/19 05:20:33;;;;;;;11.90;9.30;;;;;;;;;;5005668;28;20046;-79
2023/08/19 05:23:18;;;;;;;13.35;9.73;;;;;;;;;;5013135;28;20410;-78
2023/08/19 05:26:04;;;;;;;11.07;9.88;;;;;;;;;;5005503;28;20046;-79
2023/08/19 05:28:49;;;;;;;18.58;11.55;;;;;;;;;;4999114;28;20049;-79
2023/08/19 05:31:36;;;;;;;12.98;11.20;;;;;;;;;;5013626;28;20038;-78
2023/08/19 05:34:21;;;;;;;18.70;11.07;;;;;;;;;;5013672;28;20046;-76
2023/08/19 05:37:06;;;;;;;13.10;10.15;;;;;;;;;;5014816;28;20041;-77
2023/08/19 05:39:52;;;;;;;15.65;10.30;;;;;;;;;;5017106;28;20050;-77
2023/08/19 05:42:37;;;;;;;16.98;10.80;;;;;;;;;;5016878;28;20058;-77
2023/08/19 05:45:23;;;;;;;13.35;11.35;;;;;;;;;;5016463;28;20481;-79
2023/08/19 05:48:08;;;;;;;19.20;11.70;;;;;;;;;;5016705;28;20041;-77
2023/08/19 05:50:54;;;;;;;16.05;12.57;;;;;;;;;;5023108;28;20050;-77
2023/08/19 05:53:39;;;;;;;14.10;11.75;;;;;;;;;;5002188;28;20389;-78
2023/08/19 05:56:25;;;;;;;22.30;13.02;;;;;;;;;;5016825;28;20049;-79
2023/08/19 05:59:10;;;;;;;17.90;12.25;;;;;;;;;;5016154;28;20034;-77
2023/08/19 06:01:55;;;;;;;17.05;11.93;;;;;;;;;;5016613;28;20050;-79
2023/08/19 06:04:42;;;;;;;14.63;12.00;;;;;;;;;;5016465;28;20046;-78
2023/08/19 06:07:28;;;;;;;18.77;12.40;;;;;;;;;;5016621;28;20041;-78
2023/08/19 06:10:13;;;;;;;15.45;12.85;;;;;;;;;;5015948;28;20432;-76
2023/08/19 06:12:59;;;;;;;16.45;13.45;;;;;;;;;;5015911;28;20057;-79
2023/08/19 06:15:44;;;;;;;15.95;12.68;;;;;;;;;;5016637;28;20485;-81
2023/08/19 06:18:31;;;;;;;26.30;13.27;;;;;;;;;;5016141;28;20042;-79
2023/08/19 06:21:17;;;;;;;18.63;13.30;;;;;;;;;;5016378;28;20405;-78
2023/08/19 06:24:03;;;;;;;18.15;13.55;;;;;;;;;;5016253;28;20053;-77
2023/08/19 06:26:49;;;;;;;18.92;14.07;;;;;;;;;;5015762;28;20413;-81
2023/08/19 06:29:34;;;;;;;16.30;13.20;;;;;;;;;;5016003;28;20046;-80
2023/08/19 06:32:20;;;;;;;17.33;12.88;;;;;;;;;;5015472;28;20477;-78
2023/08/19 06:35:06;;;;;;;18.13;13.45;;;;;;;;;;5030287;28;20493;-78
2023/08/19 06:37:54;;;;;;;18.23;12.52;;;;;;;;;;5035674;28;20388;-81
2023/08/19 06:40:47;;;;;;;18.58;13.48;;;;;;;;;;5033036;28;20493;-78
2023/08/19 06:43:33;;;;;;;16.77;12.97;;;;;;;;;;5032811;28;20481;-79
2023/08/19 06:46:19;;;;;;;19.17;13.40;;;;;;;;;;5034607;28;20049;-78
2023/08/19 06:49:05;;;;;;;18.15;13.38;;;;;;;;;;5035125;28;20396;-80
2023/08/19 06:51:50;;;;;;;17.90;13.40;;;;;;;;;;5026078;28;20049;-80
2023/08/19 06:54:36;;;;;;;19.58;13.38;;;;;;;;;;5030547;28;20416;-77
2023/08/19 06:57:29;;;;;;;20.60;14.43;;;;;;;;;;5020201;28;20041;-78
2023/08/19 07:00:15;;;;;;;18.63;13.65;;;;;;;;;;5034576;28;20061;-79
2023/08/19 07:03:01;;;;;;;19.27;12.55;;;;;;;;;;5033221;28;20054;-78
2023/08/19 07:05:48;;;;;;;17.23;12.80;;;;;;;;;;5034947;28;20038;-78
2023/08/19 07:08:39;;;;;;;18.52;14.05;;;;;;;;;;5032976;28;20405;-79
2023/08/19 07:11:24;;;;;;;18.25;12.98;;;;;;;;;;5034967;28;20061;-79
2023/08/19 07:14:10;;;;;;;16.58;13.07;;;;;;;;;;5033824;28;20053;-79
2023/08/19 07:16:59;;;;;;;15.05;13.45;;;;;;;;;;5034826;28;20049;-77
2023/08/19 07:19:45;;;;;;;14.27;12.75;;;;;;;;;;5034701;28;20042;-78
2023/08/19 07:22:33;;;;;;;15.40;12.68;;;;;;;;;;5034366;28;20041;-78
2023/08/19 07:25:19;;;;;;;15.43;13.77;;;;;;;;;;5034435;28;20037;-78
2023/08/19 07:28:05;;;;;;;16.88;13.10;;;;;;;;;;5034189;28;20045;-78
2023/08/19 07:30:51;;;;;;;13.93;12.43;;;;;;;;;;5034304;28;20053;-78
2023/08/19 07:33:36;;;;;;;15.90;12.27;;;;;;;;;;5034668;28;20046;-79
2023/08/19 07:36:22;;;;;;;14.50;12.13;;;;;;;;;;5034050;28;20061;-79
2023/08/19 07:39:07;;;;;;;13.45;12.05;;;;;;;;;;5034024;28;20481;-80
2023/08/19 07:41:53;;;;;;;14.32;12.68;;;;;;;;;;5033964;28;20041;-80
2023/08/19 07:44:38;;;;;;;19.10;12.70;;;;;;;;;;5032820;28;20041;-78
2023/08/19 07:47:24;;;;;;;15.35;11.70;;;;;;;;;;5016587;28;20046;-79
2023/08/19 07:50:10;;;;;;;17.98;12.15;;;;;;;;;;5013882;28;20050;-78
2023/08/19 07:52:56;;;;;;;14.63;11.20;;;;;;;;;;5018840;28;20033;-77
2023/08/19 07:55:41;;;;;;;18.00;12.45;;;;;;;;;;5033451;28;20387;-78
2023/08/19 07:58:27;;;;;;;15.13;12.27;;;;;;;;;;5032614;28;20045;-77
2023/08/19 08:01:13;;;;;;;16.50;11.77;;;;;;;;;;5032560;28;20049;-77
2023/08/19 08:03:59;;;;;;;17.65;11.43;;;;;;;;;;5033390;28;20049;-79
2023/08/19 08:06:49;;;;;;;13.10;10.52;;;;;;;;;;5030695;28;20045;-81
2023/08/19 08:09:34;;;;;;;18.02;10.60;;;;;;;;;;5034250;28;20045;-79
2023/08/19 08:12:20;;;;;;;15.90;11.23;;;;;;;;;;5033489;28;20055;-80
2023/08/19 08:15:07;;;;;;;17.55;11.15;;;;;;;;;;5019380;28;20041;-80
2023/08/19 08:17:53;;;;;;;21.17;10.68;;;;;;;;;;5033769;28;20053;-80
2023/08/19 08:20:39;;;;;;;15.25;11.35;;;;;;;;;;5033434;28;20476;-79
2023/08/19 08:23:24;;;;;;;15.00;11.00;;;;;;;;;;5015802;28;20045;-77
2023/08/19 08:26:10;;;;;;;11.90;10.65;;;;;;;;;;5022094;28;20041;-78
2023/08/19 08:28:55;;;;;;;13.55;9.18;;;;;;;;;;5024627;28;20501;-79
2023/08/19 08:31:41;;;;;;;11.40;9.05;;;;;;;;;;5013777;28;20042;-78
2023/08/19 08:34:27;;;;;;;11.38;9.00;;;;;;;;;;5023481;28;20053;-78
2023/08/19 08:37:12;;;;;;;13.18;9.32;;;;;;;;;;5025309;28;20050;-77
2023/08/19 08:39:58;;;;;;;13.52;9.23;;;;;;;;;;5018979;28;20485;-78
2023/08/19 08:42:46;;;;;;;10.85;9.55;;;;;;;;;;5033166;28;20423;-77
2023/08/19 08:45:37;;;;;;;12.48;9.95;;;;;;;;;;5033287;28;20041;-79
2023/08/19 08:48:25;;;;;;;18.25;10.00;;;;;;;;;;5033805;28;20041;-79
2023/08/19 08:51:12;;;;;;;14.82;10.80;;;;;;;;;;5033707;28;20477;-79
2023/08/19 08:54:00;;;;;;;13.68;9.55;;;;;;;;;;5033071;28;20038;-78
2023/08/19 08:56:45;;;;;;;12.40;8.15;;;;;;;;;;5033351;28;20049;-78
2023/08/19 08:59:31;;;;;;;10.52;7.50;;;;;;;;;;5032846;28;20396;-78
2023/08/19 09:02:17;;;;;;;9.63;6.72;;;;;;;;;;5031456;28;20046;-79
2023/08/19 09:05:05;;;;;;;10.25;6.82;;;;;;;;;;5026638;28;20042;-78
2023/08/19 09:07:53;;;;;;;9.50;7.28;;;;;;;;;;5032793;28;20408;-79
2023/08/19 09:10:39;;;;;;;10.88;7.93;;;;;;;;;;5034829;28;20049;-79
2023/08/19 09:13:25;;;;;;;12.20;7.63;;;;;;;;;;5036839;28;20050;-78
2023/08/19 09:16:11;;;;;;;8.95;7.88;;;;;;;;;;5037006;28;20496;-79
2023/08/19 09:18:57;;;;;;;12.10;8.48;;;;;;;;;;5036670;28;20045;-80
2023/08/19 09:21:42;;;;;;;13.70;7.97;;;;;;;;;;5036888;28;20049;-79
2023/08/19 09:24:28;;;;;;;12.15;7.90;;;;;;;;;;5037225;28;20038;-80
2023/08/19 09:27:17;;;;;;;12.32;7.75;;;;;;;;;;5034231;28;20053;-77
2023/08/19 09:30:03;;;;;;;10.35;7.05;;;;;;;;;;5036804;28;20049;-79
2023/08/19 09:32:48;;;;;;;10.13;6.93;;;;;;;;;;5037040;28;20045;-76
2023/08/19 09:35:36;;;;;;;11.90;6.85;;;;;;;;;;5036652;28;20061;-76
2023/08/19 09:38:23;;;;;;;8.73;6.78;;;;;;;;;;5028798;28;20045;-77
2023/08/19 09:41:10;;;;;;;8.50;7.15;;;;;;;;;;5036429;28;20038;-76
2023/08/19 09:43:57;;;;;;;13.32;7.60;;;;;;;;;;5036527;28;20041;-78
2023/08/19 09:46:42;;;;;;;11.80;7.15;;;;;;;;;;5036497;28;20046;-78
2023/08/19 09:49:28;;;;;;;8.00;6.88;;;;;;;;;;5035061;28;20053;-76
2023/08/19 09:52:20;;;;;;;8.20;6.75;;;;;;;;;;5035998;28;20037;-77
2023/08/19 09:55:06;;;;;;;7.90;5.93;;;;;;;;;;5036487;28;20045;-81
2023/08/19 09:57:52;;;;;;;12.35;6.40;;;;;;;;;;5042228;28;20054;-78
2023/08/19 10:00:38;;;;;;;8.30;6.78;;;;;;;;;;5036085;28;20057;-77
2023/08/19 10:03:24;;;;;;;20.33;8.75;;;;;;;;;;5041607;28;20049;-78
2023/08/19 10:06:15;;;;;;;10.65;6.57;;;;;;;;;;5036369;28;20392;-80
2023/08/19 10:09:04;;;;;;;15.40;7.57;;;;;;;;;;5036181;28;20049;-79
2023/08/19 10:11:53;;;;;;;14.68;6.72;;;;;;;;;;5036107;28;20049;-79
2023/08/19 10:14:42;;;;;;;12.77;7.05;;;;;;;;;;5035754;28;20481;-79
2023/08/19 10:17:31;;;;;;;14.02;5.97;;;;;;;;;;5035392;28;20408;-79
2023/08/19 10:20:21;;;;;;;11.20;6.15;;;;;;;;;;5035426;28;20049;-79
2023/08/19 10:23:10;;;;;;;9.07;5.70;;;;;;;;;;5033572;28;20041;-79
2023/08/19 10:25:55;;;;;;;9.95;5.93;;;;;;;;;;5036135;28;20054;-77
2023/08/19 10:28:40;;;;;;;9.32;6.20;;;;;;;;;;5036037;28;20057;-80
2023/08/19 10:31:27;;;;;;;8.00;5.72;;;;;;;;;;5035592;28;20054;-78
2023/08/19 10:34:19;;;;;;;12.40;6.07;;;;;;;;;;5036610;28;20050;-78
2023/08/19 10:37:08;;;;;;;14.10;5.70;;;;;;;;;;5035531;28;20401;-77
2023/08/19 10:40:11;;;;;;;8.77;5.63;;;;;;;;;;5034447;28;20045;-78
2023/08/19 10:43:01;;;;;;;11.70;5.57;;;;;;;;;;5035534;28;20488;-78
2023/08/19 10:45:47;;;;;;;6.13;5.30;;;;;;;;;;5035070;28;20033;-78
2023/08/19 10:48:32;;;;;;;8.60;4.90;;;;;;;;;;5020813;28;20484;-79
2023/08/19 10:51:18;;;;;;;12.38;5.20;;;;;;;;;;5034830;28;20401;-79
2023/08/19 10:54:07;;;;;;;13.88;6.32;;;;;;;;;;5035300;28;20049;-77
2023/08/19 10:57:22;;;;;;;10.98;5.95;;;;;;;;;;5035192;28;20045;-77
2023/08/19 11:00:10;;;;;;;;;;;;;;;;;;5034792;28;20045;-79
2023/08/19 11:02:55;;;;;;;10.15;5.75;;;;;;;;;;5034037;28;19917;-80
2023/08/19 11:05:51;;;;;;;10.93;4.97;;;;;;;;;;5019818;28;20050;-78
2023/08/19 11:08:43;;;;;;;8.60;4.90;;;;;;;;;;5034964;28;20057;-79
2023/08/19 11:11:31;;;;;;;15.40;5.03;;;;;;;;;;5035079;28;20057;-78
2023/08/19 11:14:18;;;;;;;8.30;4.63;;;;;;;;;;5034287;28;20373;-77
2023/08/19 11:17:04;;;;;;;7.85;4.70;;;;;;;;;;5033827;28;20042;-78
2023/08/19 11:19:50;;;;;;;7.70;4.60;;;;;;;;;;5040741;28;20053;-78
2023/08/19 11:22:42;;;;;;;7.65;4.38;;;;;;;;;;5040428;28;20049;-79
2023/08/19 11:25:36;;;;;;;5.63;3.70;;;;;;;;;;5035081;28;20049;-78
2023/08/19 11:28:22;;;;;;;10.88;4.80;;;;;;;;;;5034251;28;20041;-78
2023/08/19 11:31:08;;;;;;;8.27;4.63;;;;;;;;;;5034140;28;20093;-77
2023/08/19 11:33:53;;;;;;;8.75;4.30;;;;;;;;;;5032981;28;20046;-77
2023/08/19 11:36:42;;;;;;;5.18;3.67;;;;;;;;;;5034286;28;20162;-78
2023/08/19 11:39:32;;;;;;;7.63;3.95;;;;;;;;;;5039974;28;20041;-80
2023/08/19 11:42:17;;;;;;;10.52;4.03;;;;;;;;;;5034072;28;20400;-79
2023/08/19 11:45:07;;;;;;;5.05;3.80;;;;;;;;;;5039510;28;20477;-77
2023/08/19 11:47:53;;;;;;;7.53;4.20;;;;;;;;;;5040286;28;20041;-78
2023/08/19 11:50:50;;;;;;;6.80;4.13;;;;;;;;;;5039774;28;20049;-77
2023/08/19 11:53:36;;;;;;;6.45;4.00;;;;;;;;;;5040069;28;20053;-77
2023/08/19 11:56:21;;;;;;;4.50;3.80;;;;;;;;;;5039922;28;20061;-78
2023/08/19 11:59:07;;;;;;;6.00;3.83;;;;;;;;;;5039953;28;20049;-77
2023/08/19 12:01:52;;;;;;;10.07;4.35;;;;;;;;;;5039957;28;20053;-80
2023/08/19 12:04:38;;;;;;;6.85;4.25;;;;;;;;;;5040382;28;20045;-78
2023/08/19 12:07:28;;;;;;;9.27;3.67;;;;;;;;;;5012253;28;20049;-78
2023/08/19 12:10:14;;;;;;;5.25;4.13;;;;;;;;;;5033186;28;20049;-78
2023/08/19 12:12:59;;;;;;;6.05;3.90;;;;;;;;;;5033793;28;20037;-78
2023/08/19 12:15:44;;;;;;;6.45;4.07;;;;;;;;;;5033383;28;20053;-77
2023/08/19 12:18:34;;;;;;;7.50;3.97;;;;;;;;;;5034053;28;20045;-79
2023/08/19 12:21:20;;;;;;;7.15;4.07;;;;;;;;;;5025328;28;20053;-81
2023/08/19 12:24:05;;;;;;;7.45;4.05;;;;;;;;;;5033095;28;20037;-79
2023/08/19 12:26:51;;;;;;;5.85;4.15;;;;;;;;;;5034205;28;20384;-79
2023/08/19 12:29:36;;;;;;;8.93;4.00;;;;;;;;;;5033278;28;20046;-79
2023/08/19 12:32:22;;;;;;;7.32;4.20;;;;;;;;;;5033691;28;20049;-79
2023/08/19 12:35:08;;;;;;;8.07;4.28;;;;;;;;;;5033724;28;20432;-78
2023/08/19 12:37:56;;;;;;;6.05;3.90;;;;;;;;;;5033511;28;20489;-78
2023/08/19 12:40:46;;;;;;;8.98;3.95;;;;;;;;;;5033526;28;20045;-77
2023/08/19 12:43:31;;;;;;;8.25;4.18;;;;;;;;;;5033474;28;20488;-77
2023/08/19 12:46:17;;;;;;;6.07;4.13;;;;;;;;;;5035900;28;20389;-78
2023/08/19 12:49:03;;;;;;;7.28;3.85;;;;;;;;;;5038085;28;20049;-78
2023/08/19 12:51:49;;;;;;;7.78;4.40;;;;;;;;;;5022563;28;20050;-77
2023/08/19 12:54:34;;;;;;;6.45;3.92;;;;;;;;;;5037502;28;20057;-79
2023/08/19 12:57:20;;;;;;;5.38;3.83;;;;;;;;;;5037365;28;20053;-77
2023/08/19 13:00:07;;;;;;;7.18;3.92;;;;;;;;;;5028278;28;20046;-77
2023/08/19 13:02:52;;;;;;;5.47;3.90;;;;;;;;;;5037475;28;20037;-78
2023/08/19 13:05:38;;;;;;;9.63;4.00;;;;;;;;;;5037154;28;20045;-78
2023/08/19 13:08:23;;;;;;;8.02;3.72;;;;;;;;;;5037607;28;20061;-77
2023/08/19 13:11:09;;;;;;;8.38;3.88;;;;;;;;;;5037309;28;20049;-77
2023/08/19 13:13:54;;;;;;;5.68;4.10;;;;;;;;;;5028831;28;20057;-78
2023/08/19 13:16:40;;;;;;;4.97;3.55;;;;;;;;;;5037562;28;20492;-80
2023/08/19 13:19:26;;;;;;;6.90;3.75;;;;;;;;;;5028450;28;20404;-78
2023/08/19 13:22:11;;;;;;;6.00;3.70;;;;;;;;;;5037002;28;20041;-78
2023/08/19 13:24:57;;;;;;;4.65;3.55;;;;;;;;;;5037296;28;20049;-79
2023/08/19 13:27:42;;;;;;;6.70;3.30;;;;;;;;;;5037669;28;20049;-80
2023/08/19 13:30:28;;;;;;;7.43;3.22;;;;;;;;;;5037113;28;20054;-82
2023/08/19 13:33:14;;;;;;;4.10;3.35;;;;;;;;;;5036637;28;20041;-78
2023/08/19 13:35:59;;;;;;;7.43;3.53;;;;;;;;;;5036986;28;20045;-78
2023/08/19 13:38:45;;;;;;;6.95;3.60;;;;;;;;;;5022274;28;20057;-80
2023/08/19 13:41:31;;;;;;;10.45;3.80;;;;;;;;;;5036686;28;20046;-78
2023/08/19 13:44:18;;;;;;;7.03;3.60;;;;;;;;;;5043332;28;20049;-80
2023/08/19 13:47:04;;;;;;;10.57;3.45;;;;;;;;;;5036338;28;20049;-78
2023/08/19 13:49:49;;;;;;;6.28;3.63;;;;;;;;;;5036225;28;20041;-79
2023/08/19 13:52:37;;;;;;;9.18;3.40;;;;;;;;;;5036419;28;20049;-79
2023/08/19 13:55:22;;;;;;;8.27;3.60;;;;;;;;;;5036208;28;20041;-79
2023/08/19 13:58:08;;;;;;;7.25;3.88;;;;;;;;;;5020713;28;20050;-78
2023/08/19 14:00:52;;;;;;;7.15;3.25;;;;;;;;;;5035745;28;20049;-78
2023/08/19 14:03:38;;;;;;;7.32;2.92;;;;;;;;;;5036545;28;20053;-77
2023/08/19 14:06:24;;;;;;;6.30;3.00;;;;;;;;;;5036205;28;20045;-77
2023/08/19 14:09:09;;;;;;;4.82;3.05;;;;;;;;;;5035679;28;20480;-78
2023/08/19 14:11:55;;;;;;;7.78;2.80;;;;;;;;;;5036643;28;20041;-79
2023/08/19 14:14:40;;;;;;;5.88;3.83;;;;;;;;;;5035521;28;20042;-80
2023/08/19 14:17:26;;;;;;;8.10;3.70;;;;;;;;;;5036295;28;20045;-78
2023/08/19 14:20:11;;;;;;;7.50;3.75;;;;;;;;;;5027826;28;20060;-78
2023/08/19 14:22:56;;;;;;;7.00;3.35;;;;;;;;;;5035549;28;20404;-79
2023/08/19 14:25:42;;;;;;;5.57;3.40;;;;;;;;;;5035998;28;20049;-77
2023/08/19 14:28:27;;;;;;;9.98;2.85;;;;;;;;;;5027301;28;20046;-77
2023/08/19 14:31:13;;;;;;;7.10;3.58;;;;;;;;;;5035786;28;20045;-77
2023/08/19 14:33:58;;;;;;;7.55;2.85;;;;;;;;;;5035722;28;20045;-78
2023/08/19 14:36:43;;;;;;;5.43;3.40;;;;;;;;;;5035268;28;20049;-78
2023/08/19 14:39:30;;;;;;;5.25;3.15;;;;;;;;;;5035876;28;20042;-77
2023/08/19 14:42:15;;;;;;;5.93;3.35;;;;;;;;;;5035248;28;20061;-78
2023/08/19 14:45:01;;;;;;;9.50;3.17;;;;;;;;;;5035595;28;20046;-77
2023/08/19 14:47:46;;;;;;;5.53;3.10;;;;;;;;;;5035410;28;20038;-79
2023/08/19 14:50:31;;;;;;;6.90;3.30;;;;;;;;;;5035105;28;20480;-79
2023/08/19 14:53:16;;;;;;;8.45;3.53;;;;;;;;;;5035674;28;20042;-78
2023/08/19 14:56:02;;;;;;;4.03;3.05;;;;;;;;;;5034876;28;20037;-78
2023/08/19 14:58:48;;;;;;;6.55;3.15;;;;;;;;;;5035690;28;20049;-78
2023/08/19 15:01:34;;;;;;;5.38;3.13;;;;;;;;;;5035187;28;20057;-79
2023/08/19 15:04:19;;;;;;;7.28;2.95;;;;;;;;;;5034712;28;20037;-77
2023/08/19 15:07:05;;;;;;;5.10;3.10;;;;;;;;;;5040503;28;20045;-78
2023/08/19 15:09:50;;;;;;;3.72;3.13;;;;;;;;;;5034880;28;20045;-76
2023/08/19 15:12:36;;;;;;;9.55;4.00;;;;;;;;;;5040832;28;20053;-77
2023/08/19 15:15:24;;;;;;;6.68;3.70;;;;;;;;;;5035289;28;20050;-78
2023/08/19 15:18:09;;;;;;;5.55;2.95;;;;;;;;;;5034243;28;20041;-79
2023/08/19 15:20:54;;;;;;;5.53;3.30;;;;;;;;;;5034486;28;20053;-77
2023/08/19 15:23:40;;;;;;;4.90;3.30;;;;;;;;;;5034826;28;20042;-78
2023/08/19 15:26:25;;;;;;;6.55;3.30;;;;;;;;;;5034220;28;20045;-78
2023/08/19 15:29:11;;;;;;;7.85;3.28;;;;;;;;;;5034714;28;20049;-77
2023/08/19 15:31:57;;;;;;;9.10;3.40;;;;;;;;;;5034189;28;20045;-79
2023/08/19 15:34:42;;;;;;;5.70;3.50;;;;;;;;;;5034737;28;20045;-78
2023/08/19 15:37:28;;;;;;;8.55;3.30;;;;;;;;;;5034535;28;20050;-78
2023/08/19 15:40:13;;;;;;;6.40;3.00;;;;;;;;;;5034047;28;20049;-77
2023/08/19 15:43:01;;;;;;;9.20;3.58;;;;;;;;;;5034746;28;20049;-78
2023/08/19 15:45:47;;;;;;;8.52;3.38;;;;;;;;;;5033812;28;20041;-77
2023/08/19 15:48:32;;;;;;;5.47;3.38;;;;;;;;;;5034182;28;20049;-79
2023/08/19 15:51:18;;;;;;;6.72;3.47;;;;;;;;;;5034732;28;20041;-78
2023/08/19 15:54:06;;;;;;;9.15;3.92;;;;;;;;;;5033934;28;20038;-78
2023/08/19 15:56:52;;;;;;;8.13;3.83;;;;;;;;;;5033850;28;20396;-77
2023/08/19 15:59:38;;;;;;;5.22;3.45;;;;;;;;;;5033450;28;20037;-77
2023/08/19 16:02:23;;;;;;;8.05;3.60;;;;;;;;;;5032915;28;20392;-78
2023/08/19 16:05:09;;;;;;;8.63;3.80;;;;;;;;;;5033720;28;20045;-76
2023/08/19 16:07:54;;;;;;;7.53;3.47;;;;;;;;;;5033762;28;20044;-78
2023/08/19 16:10:40;;;;;;;7.97;3.38;;;;;;;;;;5034355;28;20389;-77
2023/08/19 16:13:25;;;;;;;12.75;4.10;;;;;;;;;;5033589;28;20045;-77
2023/08/19 16:16:11;;;;;;;6.28;3.33;;;;;;;;;;5034049;28;20053;-78
2023/08/19 16:18:57;;;;;;;8.35;3.40;;;;;;;;;;5033918;28;20041;-76
2023/08/19 16:21:42;;;;;;;6.90;3.53;;;;;;;;;;5032693;28;20041;-80
2023/08/19 16:24:28;;;;;;;6.80;3.92;;;;;;;;;;5033829;28;20049;-78